Time;durP1;ratioP1;P1;durP2;ratioP2;P2;SDS_P1;SDS_P2;PMS_P1;PMS_P2;Temp;Humidity;BMP_temperature;BMP_pressure;BME280_temperature;BME280_humidity;BME280_pressure;Samples;Min_cycle;Max_cycle;Signal;HPM_P1;HPM_P2
2023/03/26 07:33:52;;;;;;;0.00;0.00;;;;;;;;;;2087109;23;20334;-62
2023/03/26 07:34:49;;;;;;;0.00;0.00;;;;;;;;;;2090861;23;20163;-61
2023/03/26 07:35:43;;;;;;;0.00;0.00;;;;;;;;;;2085748;23;20211;-60
2023/03/26 07:36:37;;;;;;;0.00;0.00;;;;;;;;;;2087717;23;20262;-60
2023/03/26 07:37:34;;;;;;;0.00;0.00;;;;;;;;;;2087765;23;20565;-61
2023/03/26 07:38:36;;;;;;;0.00;0.00;;;;;;;;;;2087716;23;20619;-61
2023/03/26 07:39:35;;;;;;;0.00;0.00;;;;;;;;;;2087376;23;20210;-61
2023/03/26 07:40:37;;;;;;;0.00;0.00;;;;;;;;;;2085534;23;20171;-62
2023/03/26 07:41:31;;;;;;;0.00;0.00;;;;;;;;;;2087354;23;20198;-61
2023/03/26 07:42:30;;;;;;;0.00;0.00;;;;;;;;;;2087828;23;20183;-61
2023/03/26 07:43:26;;;;;;;0.00;0.00;;;;;;;;;;2087975;23;20167;-61
2023/03/26 07:44:23;;;;;;;0.00;0.00;;;;;;;;;;2087772;23;20840;-61
2023/03/26 07:45:19;;;;;;;0.00;0.00;;;;;;;;;;2085162;23;20168;-61
2023/03/26 07:46:12;;;;;;;0.00;0.00;;;;;;;;;;2087142;23;20261;-61
2023/03/26 07:47:09;;;;;;;0.00;0.00;;;;;;;;;;2087734;23;20183;-61
2023/03/26 07:48:02;;;;;;;0.00;0.00;;;;;;;;;;2087554;23;20569;-61
2023/03/26 07:48:57;;;;;;;0.00;0.00;;;;;;;;;;2087852;23;20221;-61
2023/03/26 07:49:48;;;;;;;0.00;0.00;;;;;;;;;;2087399;23;20168;-61
2023/03/26 07:50:41;;;;;;;0.00;0.00;;;;;;;;;;2085323;23;20206;-61
2023/03/26 07:51:32;;;;;;;0.00;0.00;;;;;;;;;;2087533;23;20250;-61
2023/03/26 07:52:25;;;;;;;0.00;0.00;;;;;;;;;;2087729;23;20660;-61
2023/03/26 07:53:16;;;;;;;0.00;0.00;;;;;;;;;;2087795;23;20241;-61
2023/03/26 07:54:10;;;;;;;0.00;0.00;;;;;;;;;;2087468;23;20194;-61
2023/03/26 07:55:02;;;;;;;0.00;0.00;;;;;;;;;;2087573;23;20187;-61
2023/03/26 07:55:57;;;;;;;0.00;0.00;;;;;;;;;;2084757;23;20422;-61
2023/03/26 07:56:52;;;;;;;0.00;0.00;;;;;;;;;;2087484;23;20163;-61
2023/03/26 07:57:49;;;;;;;0.13;0.13;;;;;;;;;;2087654;23;20179;-61
2023/03/26 07:58:55;;;;;;;0.00;0.00;;;;;;;;;;2087664;23;20270;-61
2023/03/26 07:59:51;;;;;;;0.00;0.00;;;;;;;;;;2087399;23;20194;-64
2023/03/26 08:00:45;;;;;;;0.00;0.00;;;;;;;;;;2085031;23;20553;-61
2023/03/26 08:01:42;;;;;;;0.00;0.00;;;;;;;;;;2087502;23;20191;-61
2023/03/26 08:02:46;;;;;;;0.00;0.00;;;;;;;;;;2086693;23;20592;-61
2023/03/26 08:03:46;;;;;;;0.00;0.00;;;;;;;;;;2089579;23;20653;-61
2023/03/26 08:04:53;;;;;;;0.00;0.00;;;;;;;;;;2090864;23;20164;-61
2023/03/26 08:05:51;;;;;;;0.00;0.00;;;;;;;;;;2086214;23;20211;-61
2023/03/26 08:06:48;;;;;;;0.00;0.00;;;;;;;;;;2087351;23;20218;-61
2023/03/26 08:07:49;;;;;;;0.00;0.00;;;;;;;;;;2091372;23;20661;-61
2023/03/26 08:08:44;;;;;;;0.00;0.00;;;;;;;;;;2087670;23;20174;-61
2023/03/26 08:09:41;;;;;;;0.00;0.00;;;;;;;;;;2087391;23;20230;-61
2023/03/26 08:10:36;;;;;;;0.00;0.00;;;;;;;;;;2085246;23;20270;-61
2023/03/26 08:11:35;;;;;;;0.00;0.00;;;;;;;;;;2087494;23;20695;-61
2023/03/26 08:12:30;;;;;;;0.00;0.00;;;;;;;;;;2087987;23;20171;-60
2023/03/26 08:13:23;;;;;;;0.00;0.00;;;;;;;;;;2087474;23;20533;-61
2023/03/26 08:14:23;;;;;;;0.00;0.00;;;;;;;;;;2087788;23;20194;-61
2023/03/26 08:15:20;;;;;;;0.00;0.00;;;;;;;;;;2084847;23;20167;-62
2023/03/26 08:16:14;;;;;;;0.00;0.00;;;;;;;;;;2087294;23;20249;-61
2023/03/26 08:17:08;;;;;;;0.00;0.00;;;;;;;;;;2087525;23;20657;-61
2023/03/26 08:18:05;;;;;;;0.00;0.00;;;;;;;;;;2087518;23;20191;-62
2023/03/26 08:19:01;;;;;;;0.00;0.00;;;;;;;;;;2087884;23;20265;-61
2023/03/26 08:20:01;;;;;;;0.00;0.00;;;;;;;;;;2087520;23;20164;-62
2023/03/26 08:20:57;;;;;;;0.00;0.00;;;;;;;;;;2085645;23;20700;-61
2023/03/26 08:21:52;;;;;;;0.00;0.00;;;;;;;;;;2086983;23;20202;-62
2023/03/26 08:22:49;;;;;;;0.00;0.00;;;;;;;;;;2088236;23;20580;-61
2023/03/26 08:23:48;;;;;;;0.00;0.00;;;;;;;;;;2087473;23;20199;-61
2023/03/26 08:24:45;;;;;;;0.00;0.00;;;;;;;;;;2087811;23;20167;-61
2023/03/26 08:25:43;;;;;;;0.00;0.00;;;;;;;;;;2085188;23;20235;-62
2023/03/26 08:26:40;;;;;;;0.00;0.00;;;;;;;;;;2087821;23;20163;-61
2023/03/26 08:27:36;;;;;;;0.00;0.00;;;;;;;;;;2091032;23;20273;-62
2023/03/26 08:28:37;;;;;;;0.00;0.00;;;;;;;;;;2087552;23;20164;-62
2023/03/26 08:29:33;;;;;;;0.00;0.00;;;;;;;;;;2087804;23;20554;-62
2023/03/26 08:30:26;;;;;;;0.00;0.00;;;;;;;;;;2085137;23;20163;-61
2023/03/26 08:31:18;;;;;;;0.00;0.00;;;;;;;;;;2087897;23;20557;-62
2023/03/26 08:32:13;;;;;;;0.00;0.00;;;;;;;;;;2087657;23;20207;-61
2023/03/26 08:33:10;;;;;;;0.00;0.00;;;;;;;;;;2091424;23;20222;-63
2023/03/26 08:34:02;;;;;;;0.00;0.00;;;;;;;;;;2098087;23;20197;-62
2023/03/26 08:34:53;;;;;;;0.00;0.00;;;;;;;;;;2097875;23;20178;-61
2023/03/26 08:35:47;;;;;;;0.00;0.00;;;;;;;;;;2095330;23;20276;-62
2023/03/26 08:36:38;;;;;;;0.00;0.00;;;;;;;;;;2097603;23;20193;-63
2023/03/26 08:37:30;;;;;;;0.00;0.00;;;;;;;;;;2098026;23;20249;-62
2023/03/26 08:38:21;;;;;;;0.00;0.00;;;;;;;;;;2097705;23;20244;-62
2023/03/26 08:39:13;;;;;;;0.00;0.00;;;;;;;;;;2097925;23;20198;-61
2023/03/26 08:40:05;;;;;;;0.00;0.00;;;;;;;;;;2097678;23;20796;-63
2023/03/26 08:41:18;;;;;;;0.00;0.00;;;;;;;;;;2095562;23;20241;-62
2023/03/26 08:42:21;;;;;;;0.00;0.00;;;;;;;;;;2097811;23;20269;-62
2023/03/26 08:43:25;;;;;;;0.00;0.00;;;;;;;;;;2097609;23;20221;-61
2023/03/26 08:44:35;;;;;;;0.00;0.00;;;;;;;;;;2097990;23;20633;-61
2023/03/26 08:45:50;;;;;;;0.05;0.05;;;;;;;;;;2097712;23;20163;-62
2023/03/26 08:47:05;;;;;;;0.00;0.00;;;;;;;;;;2097268;23;20173;-62
2023/03/26 08:48:14;;;;;;;0.00;0.00;;;;;;;;;;2061499;23;20173;-62
2023/03/26 08:49:24;;;;;;;0.00;0.00;;;;;;;;;;2073864;23;20187;-62
2023/03/26 08:50:27;;;;;;;0.00;0.00;;;;;;;;;;2094760;23;20186;-62
2023/03/26 08:51:39;;;;;;;0.00;0.00;;;;;;;;;;2096348;23;20285;-62
2023/03/26 08:52:38;;;;;;;0.00;0.00;;;;;;;;;;2097552;23;20162;-62
2023/03/26 08:53:46;;;;;;;0.00;0.00;;;;;;;;;;2097480;23;20258;-62
2023/03/26 08:54:47;;;;;;;0.00;0.00;;;;;;;;;;2097528;23;20159;-62
2023/03/26 08:55:49;;;;;;;0.00;0.00;;;;;;;;;;2095687;23;20210;-62
2023/03/26 08:56:47;;;;;;;0.00;0.00;;;;;;;;;;2098472;23;20241;-62
2023/03/26 08:57:59;;;;;;;0.00;0.00;;;;;;;;;;2098632;23;20229;-62
2023/03/26 08:59:10;;;;;;;0.00;0.00;;;;;;;;;;2047454;24;20182;-62
2023/03/26 09:00:15;;;;;;;0.00;0.00;;;;;;;;;;2097927;23;20310;-62
2023/03/26 09:01:17;;;;;;;0.00;0.00;;;;;;;;;;2095863;23;20648;-62
2023/03/26 09:02:22;;;;;;;0.00;0.00;;;;;;;;;;2098123;23;20221;-62
2023/03/26 09:03:28;;;;;;;0.00;0.00;;;;;;;;;;2098447;23;20249;-62
2023/03/26 09:04:35;;;;;;;0.00;0.00;;;;;;;;;;2101623;23;20667;-63
2023/03/26 09:05:53;;;;;;;0.00;0.00;;;;;;;;;;2091000;23;20186;-61
2023/03/26 09:06:52;;;;;;;0.00;0.00;;;;;;;;;;2097753;23;20163;-61
2023/03/26 09:08:02;;;;;;;0.00;0.00;;;;;;;;;;2097962;23;20663;-61
2023/03/26 09:09:04;;;;;;;0.00;0.00;;;;;;;;;;2097211;23;20579;-61
2023/03/26 09:10:03;;;;;;;0.00;0.00;;;;;;;;;;2097834;23;20174;-61
2023/03/26 09:11:02;;;;;;;0.00;0.00;;;;;;;;;;2095440;23;20289;-61
2023/03/26 09:12:16;;;;;;;0.00;0.00;;;;;;;;;;2097536;23;21431;-61
2023/03/26 09:13:27;;;;;;;0.00;0.00;;;;;;;;;;2097875;23;20217;-61
2023/03/26 09:14:29;;;;;;;0.00;0.00;;;;;;;;;;2086019;23;20186;-61
2023/03/26 09:15:33;;;;;;;0.00;0.00;;;;;;;;;;2095171;23;20177;-62
2023/03/26 09:16:46;;;;;;;0.00;0.00;;;;;;;;;;2097889;23;20198;-61
2023/03/26 09:17:52;;;;;;;0.00;0.00;;;;;;;;;;2047798;24;20229;-61
2023/03/26 09:18:54;;;;;;;0.00;0.00;;;;;;;;;;2097854;23;20163;-61
2023/03/26 09:19:56;;;;;;;0.00;0.00;;;;;;;;;;2098160;23;20163;-60
2023/03/26 09:21:10;;;;;;;0.00;0.00;;;;;;;;;;2096221;23;20210;-62
2023/03/26 09:22:14;;;;;;;0.00;0.00;;;;;;;;;;2097543;23;20754;-61
2023/03/26 09:23:15;;;;;;;0.00;0.00;;;;;;;;;;2098449;23;20210;-62
2023/03/26 09:24:18;;;;;;;0.00;0.00;;;;;;;;;;2099821;23;20408;-61
2023/03/26 09:25:25;;;;;;;0.00;0.00;;;;;;;;;;2098579;23;20277;-61
2023/03/26 09:26:24;;;;;;;0.00;0.00;;;;;;;;;;2096471;23;20207;-61
2023/03/26 09:27:25;;;;;;;0.00;0.00;;;;;;;;;;2101451;23;20194;-61
2023/03/26 09:28:35;;;;;;;0.00;0.00;;;;;;;;;;2101209;23;20176;-61
2023/03/26 09:29:46;;;;;;;0.00;0.00;;;;;;;;;;2097025;23;20202;-62
2023/03/26 09:30:46;;;;;;;0.00;0.00;;;;;;;;;;2095807;23;20214;-62
2023/03/26 09:31:45;;;;;;;0.00;0.00;;;;;;;;;;2099388;23;20217;-61
2023/03/26 09:50:28;;;;;;;0.00;0.00;;;;;;;;;;2103924;23;20277;-61
2023/03/26 09:51:44;;;;;;;0.00;0.00;;;;;;;;;;2106783;23;20217;-62
2023/03/26 09:52:49;;;;;;;0.00;0.00;;;;;;;;;;2071892;23;20687;-61
2023/03/26 09:53:49;;;;;;;0.00;0.00;;;;;;;;;;2107146;23;20162;-61
2023/03/26 09:54:53;;;;;;;0.00;0.00;;;;;;;;;;2107550;23;20185;-60
2023/03/26 09:55:56;;;;;;;0.00;0.00;;;;;;;;;;2104348;23;20499;-61
2023/03/26 09:56:50;;;;;;;0.00;0.00;;;;;;;;;;2107335;23;20635;-60
2023/03/26 09:57:52;;;;;;;0.00;0.00;;;;;;;;;;2107229;23;20180;-60
2023/03/26 09:58:58;;;;;;;0.00;0.00;;;;;;;;;;2107374;23;20604;-61
2023/03/26 10:00:09;;;;;;;0.00;0.00;;;;;;;;;;2106848;23;20167;-61
2023/03/26 10:01:05;;;;;;;0.00;0.00;;;;;;;;;;2104789;23;20269;-61
2023/03/26 10:01:59;;;;;;;0.00;0.00;;;;;;;;;;2106971;23;20193;-61
2023/03/26 10:02:58;;;;;;;0.00;0.00;;;;;;;;;;2107671;23;20177;-61
2023/03/26 10:15:36;;;;;;;0.00;0.00;;;;;;;;;;1733378;27;20587;-62
2023/03/26 10:16:31;;;;;;;0.00;0.00;;;;;;;;;;1730271;28;20212;-63
2023/03/26 10:17:30;;;;;;;0.00;0.00;;;;;;;;;;1728204;28;20259;-64
2023/03/26 10:18:26;;;;;;;0.00;0.00;;;;;;;;;;1729656;28;20228;-63
2023/03/26 10:19:33;;;;;;;0.00;0.00;;;;;;;;;;1727929;28;20207;-62
2023/03/26 10:20:38;;;;;;;0.00;0.00;;;;;;;;;;1728610;28;20201;-62
2023/03/26 10:21:35;;;;;;;0.00;0.00;;;;;;;;;;1726952;28;20310;-62
2023/03/26 10:22:34;;;;;;;0.00;0.00;;;;;;;;;;1723870;28;20301;-62
2023/03/26 10:23:40;;;;;;;0.00;0.00;;;;;;;;;;1725942;28;20201;-62
2023/03/26 10:24:37;;;;;;;0.00;0.00;;;;;;;;;;1724821;28;20193;-61
2023/03/26 10:25:35;;;;;;;0.00;0.00;;;;;;;;;;1721553;28;20208;-61
2023/03/26 10:26:38;;;;;;;0.00;0.00;;;;;;;;;;1724071;28;20638;-63
2023/03/26 10:27:40;;;;;;;0.00;0.00;;;;;;;;;;1723622;28;20193;-62
2023/03/26 10:28:42;;;;;;;0.00;0.00;;;;;;;;;;1723572;28;20197;-61
2023/03/26 10:29:53;;;;;;;0.00;0.00;;;;;;;;;;1723401;28;20189;-62
2023/03/26 10:30:59;;;;;;;0.00;0.00;;;;;;;;;;1722656;28;20644;-62
2023/03/26 10:31:54;;;;;;;0.00;0.00;;;;;;;;;;1724421;28;20233;-63
2023/03/26 10:32:50;;;;;;;0.00;0.00;;;;;;;;;;1729713;28;20553;-62
2023/03/26 10:33:48;;;;;;;0.00;0.00;;;;;;;;;;1728463;28;20200;-62
2023/03/26 10:34:46;;;;;;;0.00;0.00;;;;;;;;;;1724244;28;20671;-63
2023/03/26 10:35:42;;;;;;;0.00;0.00;;;;;;;;;;1720973;28;20240;-62
2023/03/26 10:36:35;;;;;;;0.00;0.00;;;;;;;;;;1727543;28;20204;-62
2023/03/26 10:37:35;;;;;;;0.00;0.00;;;;;;;;;;1723674;28;20701;-62
2023/03/26 10:38:33;;;;;;;0.00;0.00;;;;;;;;;;1723291;28;20274;-63
2023/03/26 10:39:32;;;;;;;0.00;0.00;;;;;;;;;;1723617;28;20193;-63
2023/03/26 10:40:26;;;;;;;0.00;0.00;;;;;;;;;;1721037;28;20213;-64
2023/03/26 10:41:21;;;;;;;0.00;0.00;;;;;;;;;;1724779;28;20811;-62
2023/03/26 10:42:19;;;;;;;0.00;0.00;;;;;;;;;;1724772;28;20272;-62
2023/03/26 10:43:20;;;;;;;0.00;0.00;;;;;;;;;;1727960;28;20294;-62
2023/03/26 10:44:25;;;;;;;0.00;0.00;;;;;;;;;;1729901;28;20220;-62
2023/03/26 10:45:24;;;;;;;0.00;0.00;;;;;;;;;;1726379;28;20196;-62
2023/03/26 10:46:24;;;;;;;0.00;0.00;;;;;;;;;;1725664;28;20208;-62
2023/03/26 10:47:41;;;;;;;0.00;0.00;;;;;;;;;;1727725;28;20204;-63
2023/03/26 10:48:41;;;;;;;0.00;0.00;;;;;;;;;;1723148;28;20208;-62
2023/03/26 10:49:51;;;;;;;0.00;0.00;;;;;;;;;;1728573;28;20189;-61
2023/03/26 10:50:49;;;;;;;0.00;0.00;;;;;;;;;;1726337;28;20271;-61
2023/03/26 10:51:47;;;;;;;0.00;0.00;;;;;;;;;;1725265;28;20252;-61
2023/03/26 10:52:40;;;;;;;0.00;0.00;;;;;;;;;;1729435;28;20259;-61
2023/03/26 10:53:35;;;;;;;0.00;0.00;;;;;;;;;;1729848;28;20200;-61
2023/03/26 10:54:31;;;;;;;0.00;0.00;;;;;;;;;;1723253;28;20258;-62
2023/03/26 10:55:27;;;;;;;0.00;0.00;;;;;;;;;;1727587;28;20208;-61
2023/03/26 10:56:21;;;;;;;0.00;0.00;;;;;;;;;;1725901;28;20213;-62
2023/03/26 10:57:19;;;;;;;0.00;0.00;;;;;;;;;;1728554;28;20342;-62
2023/03/26 10:58:13;;;;;;;0.00;0.00;;;;;;;;;;1729383;28;20242;-63
2023/03/26 10:59:07;;;;;;;0.00;0.00;;;;;;;;;;1724420;28;20205;-63
2023/03/26 11:00:00;;;;;;;0.00;0.00;;;;;;;;;;1725762;28;20348;-63
2023/03/26 11:00:56;;;;;;;0.00;0.00;;;;;;;;;;1727679;28;20231;-65
2023/03/26 11:01:51;;;;;;;0.00;0.00;;;;;;;;;;1725090;28;20233;-63
2023/03/26 11:02:46;;;;;;;0.00;0.00;;;;;;;;;;1729032;28;20195;-62
2023/03/26 11:03:45;;;;;;;0.00;0.00;;;;;;;;;;1723075;28;20348;-63
2023/03/26 11:04:42;;;;;;;0.00;0.00;;;;;;;;;;1722907;28;20316;-63
2023/03/26 11:05:44;;;;;;;0.00;0.00;;;;;;;;;;1721247;28;20873;-63
2023/03/26 11:06:40;;;;;;;0.00;0.00;;;;;;;;;;1727105;28;20215;-61
2023/03/26 11:07:34;;;;;;;0.00;0.00;;;;;;;;;;1723287;28;20213;-62
2023/03/26 11:08:31;;;;;;;0.00;0.00;;;;;;;;;;1729878;28;20307;-62
2023/03/26 11:09:28;;;;;;;0.00;0.00;;;;;;;;;;1729733;28;20265;-62
2023/03/26 11:10:25;;;;;;;0.10;0.10;;;;;;;;;;1722219;28;20827;-62
2023/03/26 11:11:20;;;;;;;0.00;0.00;;;;;;;;;;1728018;28;20208;-62
2023/03/26 11:12:15;;;;;;;0.00;0.00;;;;;;;;;;1729765;28;20231;-62
2023/03/26 11:13:14;;;;;;;0.00;0.00;;;;;;;;;;1727393;28;20262;-63
2023/03/26 11:14:10;;;;;;;0.00;0.00;;;;;;;;;;1723065;28;20233;-61
2023/03/26 11:15:07;;;;;;;0.00;0.00;;;;;;;;;;1722540;28;20706;-61
2023/03/26 11:16:02;;;;;;;0.00;0.00;;;;;;;;;;1721942;28;20727;-62
2023/03/26 11:16:57;;;;;;;0.00;0.00;;;;;;;;;;1718119;28;20749;-62
2023/03/26 11:17:53;;;;;;;0.00;0.00;;;;;;;;;;1719074;28;20279;-62
2023/03/26 11:18:48;;;;;;;0.00;0.00;;;;;;;;;;1719763;28;20201;-62
2023/03/26 11:19:41;;;;;;;0.00;0.00;;;;;;;;;;1723008;28;20773;-62
2023/03/26 11:20:37;;;;;;;0.00;0.00;;;;;;;;;;1719424;28;21801;-61
2023/03/26 11:21:33;;;;;;;0.00;0.00;;;;;;;;;;1718290;28;20331;-62
2023/03/26 11:22:29;;;;;;;0.00;0.00;;;;;;;;;;1718520;28;20221;-61
2023/03/26 11:23:27;;;;;;;0.00;0.00;;;;;;;;;;1722766;28;20212;-62
2023/03/26 11:24:30;;;;;;;0.00;0.00;;;;;;;;;;1724337;28;20713;-62
2023/03/26 11:25:26;;;;;;;0.10;0.10;;;;;;;;;;1722953;28;20280;-62
2023/03/26 11:26:23;;;;;;;0.00;0.00;;;;;;;;;;1722669;28;20208;-62
2023/03/26 11:27:18;;;;;;;0.00;0.00;;;;;;;;;;1723758;28;20274;-62
2023/03/26 11:28:16;;;;;;;0.00;0.00;;;;;;;;;;1721184;28;20274;-61
2023/03/26 11:29:14;;;;;;;0.00;0.00;;;;;;;;;;1718411;28;20211;-62
2023/03/26 11:30:13;;;;;;;0.00;0.00;;;;;;;;;;1723502;28;20205;-62
2023/03/26 11:31:07;;;;;;;0.00;0.00;;;;;;;;;;1716628;28;20291;-63
2023/03/26 11:32:03;;;;;;;0.00;0.00;;;;;;;;;;1715195;28;20336;-62
2023/03/26 11:32:56;;;;;;;0.00;0.00;;;;;;;;;;1712811;28;20217;-62
2023/03/26 11:33:50;;;;;;;0.00;0.00;;;;;;;;;;1715100;28;20211;-62
2023/03/26 11:34:44;;;;;;;0.00;0.00;;;;;;;;;;1715524;28;20255;-62
2023/03/26 11:35:37;;;;;;;0.00;0.00;;;;;;;;;;1712394;28;20233;-62
2023/03/26 11:36:31;;;;;;;0.00;0.00;;;;;;;;;;1714949;28;20706;-62
2023/03/26 11:37:26;;;;;;;0.00;0.00;;;;;;;;;;1712884;28;20210;-62
2023/03/26 11:38:19;;;;;;;0.00;0.00;;;;;;;;;;1712330;28;20214;-62
2023/03/26 11:39:13;;;;;;;0.00;0.00;;;;;;;;;;1716393;28;20209;-62
2023/03/26 11:40:10;;;;;;;0.00;0.00;;;;;;;;;;1716280;28;20206;-63
2023/03/26 11:41:02;;;;;;;0.00;0.00;;;;;;;;;;1716778;28;20236;-62
2023/03/26 11:41:58;;;;;;;0.00;0.00;;;;;;;;;;1713764;28;20230;-63
2023/03/26 11:42:51;;;;;;;0.00;0.00;;;;;;;;;;1717246;28;20285;-61
2023/03/26 11:43:43;;;;;;;0.00;0.00;;;;;;;;;;1712479;28;20206;-61
2023/03/26 11:44:38;;;;;;;0.00;0.00;;;;;;;;;;1716538;28;20208;-61
2023/03/26 11:45:31;;;;;;;0.00;0.00;;;;;;;;;;1712902;28;20723;-61
2023/03/26 11:46:25;;;;;;;0.00;0.00;;;;;;;;;;1712752;28;20264;-61
2023/03/26 11:47:22;;;;;;;0.00;0.00;;;;;;;;;;1716823;28;20213;-61
2023/03/26 11:48:15;;;;;;;0.00;0.00;;;;;;;;;;1718101;28;20206;-61
2023/03/26 11:49:10;;;;;;;0.00;0.00;;;;;;;;;;1717995;28;20216;-61
2023/03/26 11:50:03;;;;;;;0.00;0.00;;;;;;;;;;1714980;28;20293;-62
2023/03/26 11:50:56;;;;;;;0.00;0.00;;;;;;;;;;1715385;28;20943;-62
2023/03/26 11:51:49;;;;;;;0.00;0.00;;;;;;;;;;1718963;28;20225;-62
2023/03/26 11:52:40;;;;;;;0.00;0.00;;;;;;;;;;1718433;28;20248;-62
2023/03/26 11:53:37;;;;;;;0.00;0.00;;;;;;;;;;1724737;28;20928;-61
2023/03/26 11:54:28;;;;;;;0.00;0.00;;;;;;;;;;1718629;28;20201;-62
2023/03/26 11:55:22;;;;;;;0.00;0.00;;;;;;;;;;1721917;28;20205;-61
2023/03/26 11:56:16;;;;;;;0.00;0.00;;;;;;;;;;1723527;28;20262;-61
2023/03/26 11:57:10;;;;;;;0.00;0.00;;;;;;;;;;1719236;28;20689;-62
2023/03/26 11:58:03;;;;;;;0.00;0.00;;;;;;;;;;1719081;28;20571;-62
2023/03/26 11:58:59;;;;;;;0.00;0.00;;;;;;;;;;1720928;28;20284;-62
2023/03/26 11:59:53;;;;;;;0.00;0.00;;;;;;;;;;1722707;28;20209;-62
2023/03/26 12:00:44;;;;;;;0.00;0.00;;;;;;;;;;1722903;28;20641;-62
2023/03/26 12:01:49;;;;;;;0.00;0.00;;;;;;;;;;1720322;28;20229;-62
2023/03/26 12:02:42;;;;;;;0.00;0.00;;;;;;;;;;1718939;28;20201;-61
2023/03/26 12:03:33;;;;;;;0.00;0.00;;;;;;;;;;1724679;28;20210;-62
2023/03/26 12:04:27;;;;;;;0.00;0.00;;;;;;;;;;1724896;28;20256;-63
2023/03/26 12:05:19;;;;;;;0.00;0.00;;;;;;;;;;1716019;28;20704;-63
2023/03/26 12:06:24;;;;;;;0.00;0.00;;;;;;;;;;1717835;28;20205;-62
2023/03/26 12:07:16;;;;;;;0.00;0.00;;;;;;;;;;1718121;28;20217;-62
2023/03/26 12:08:21;;;;;;;0.00;0.00;;;;;;;;;;1721030;28;20204;-62
2023/03/26 12:09:16;;;;;;;0.00;0.00;;;;;;;;;;1720045;28;20698;-62
2023/03/26 12:10:21;;;;;;;0.00;0.00;;;;;;;;;;1717891;28;20229;-62
2023/03/26 12:11:12;;;;;;;0.00;0.00;;;;;;;;;;1720314;28;20249;-62
2023/03/26 12:12:05;;;;;;;0.00;0.00;;;;;;;;;;1721680;28;20238;-62
2023/03/26 12:12:57;;;;;;;0.00;0.00;;;;;;;;;;1724902;28;20256;-63
2023/03/26 12:13:51;;;;;;;0.00;0.00;;;;;;;;;;1724514;28;20229;-63
2023/03/26 12:14:43;;;;;;;0.00;0.00;;;;;;;;;;1721551;28;20209;-63
2023/03/26 12:15:43;;;;;;;0.00;0.00;;;;;;;;;;1716312;28;20295;-63
2023/03/26 12:16:34;;;;;;;0.00;0.00;;;;;;;;;;1720147;28;20210;-62
2023/03/26 12:17:30;;;;;;;0.00;0.00;;;;;;;;;;1724927;28;20267;-63
2023/03/26 12:18:25;;;;;;;0.00;0.00;;;;;;;;;;1723573;28;20213;-64
2023/03/26 12:19:21;;;;;;;0.00;0.00;;;;;;;;;;1724974;28;20308;-63
2023/03/26 12:20:33;;;;;;;0.00;0.00;;;;;;;;;;1717605;28;20206;-63
2023/03/26 12:21:25;;;;;;;0.00;0.00;;;;;;;;;;1719394;28;20228;-63
2023/03/26 12:22:28;;;;;;;0.00;0.00;;;;;;;;;;1719088;28;20229;-63
2023/03/26 12:23:34;;;;;;;0.00;0.00;;;;;;;;;;1722801;28;20237;-63
2023/03/26 12:24:28;;;;;;;0.00;0.00;;;;;;;;;;1724622;28;20213;-64
2023/03/26 12:25:20;;;;;;;0.00;0.00;;;;;;;;;;1722856;28;20209;-63
2023/03/26 12:26:15;;;;;;;0.00;0.00;;;;;;;;;;1721256;28;20216;-62
2023/03/26 12:27:21;;;;;;;0.00;0.00;;;;;;;;;;1722384;28;20210;-63
2023/03/26 12:28:16;;;;;;;0.00;0.00;;;;;;;;;;1722555;28;20205;-63
2023/03/26 12:29:10;;;;;;;0.00;0.00;;;;;;;;;;1725605;28;20787;-63
2023/03/26 12:30:09;;;;;;;0.00;0.00;;;;;;;;;;1720432;28;20248;-63
2023/03/26 12:31:02;;;;;;;0.00;0.00;;;;;;;;;;1719906;28;20228;-63
2023/03/26 12:31:57;;;;;;;0.00;0.00;;;;;;;;;;1719253;28;20225;-62
2023/03/26 12:32:49;;;;;;;0.00;0.00;;;;;;;;;;1718259;28;20725;-64
2023/03/26 12:33:43;;;;;;;0.00;0.00;;;;;;;;;;1718886;28;20252;-62
2023/03/26 12:34:35;;;;;;;0.00;0.00;;;;;;;;;;1723847;28;20706;-62
2023/03/26 12:35:29;;;;;;;0.00;0.00;;;;;;;;;;1716796;28;20194;-62
2023/03/26 12:36:24;;;;;;;0.00;0.00;;;;;;;;;;1721614;28;20209;-62
2023/03/26 12:37:31;;;;;;;0.00;0.00;;;;;;;;;;1719306;28;20569;-63
2023/03/26 12:38:23;;;;;;;0.00;0.00;;;;;;;;;;1719412;28;20214;-63
2023/03/26 12:39:37;;;;;;;0.00;0.00;;;;;;;;;;1723393;28;20208;-63
2023/03/26 12:40:30;;;;;;;0.00;0.00;;;;;;;;;;1716248;28;20201;-63
2023/03/26 12:41:34;;;;;;;0.00;0.00;;;;;;;;;;1720959;28;20209;-63
2023/03/26 12:42:26;;;;;;;0.00;0.00;;;;;;;;;;1719150;28;20691;-63
2023/03/26 12:43:22;;;;;;;0.00;0.00;;;;;;;;;;1722076;28;20209;-60
2023/03/26 12:44:21;;;;;;;0.00;0.00;;;;;;;;;;1724469;28;20674;-60
2023/03/26 12:45:13;;;;;;;0.00;0.00;;;;;;;;;;1715760;28;20233;-61
2023/03/26 12:46:19;;;;;;;0.00;0.00;;;;;;;;;;1719819;28;20239;-61
2023/03/26 12:47:16;;;;;;;0.00;0.00;;;;;;;;;;1718593;28;20667;-60
2023/03/26 12:48:07;;;;;;;0.00;0.00;;;;;;;;;;1717685;28;20275;-61
2023/03/26 12:49:01;;;;;;;0.00;0.00;;;;;;;;;;1720715;28;20205;-61
2023/03/26 12:49:53;;;;;;;0.00;0.00;;;;;;;;;;1720515;28;20271;-61
2023/03/26 12:50:55;;;;;;;0.00;0.00;;;;;;;;;;1716941;28;20224;-61
2023/03/26 12:51:48;;;;;;;0.00;0.00;;;;;;;;;;1719160;28;20595;-61
2023/03/26 12:52:51;;;;;;;0.00;0.00;;;;;;;;;;1718058;28;20203;-62
2023/03/26 12:53:47;;;;;;;0.00;0.00;;;;;;;;;;1723617;28;20220;-61
2023/03/26 12:54:44;;;;;;;0.00;0.00;;;;;;;;;;1719373;28;20194;-61
2023/03/26 12:55:39;;;;;;;0.00;0.00;;;;;;;;;;1716020;28;20319;-61
2023/03/26 12:56:37;;;;;;;0.00;0.00;;;;;;;;;;1721375;28;20232;-61
2023/03/26 12:57:32;;;;;;;0.00;0.00;;;;;;;;;;1717980;28;20674;-61
2023/03/26 12:58:40;;;;;;;0.00;0.00;;;;;;;;;;1718736;28;20201;-63
2023/03/26 12:59:39;;;;;;;0.00;0.00;;;;;;;;;;1718841;28;20239;-63
2023/03/26 13:00:43;;;;;;;0.00;0.00;;;;;;;;;;1719711;28;20248;-61
2023/03/26 13:01:40;;;;;;;0.00;0.00;;;;;;;;;;1717713;28;20268;-62
2023/03/26 13:02:51;;;;;;;0.00;0.00;;;;;;;;;;1718129;28;20225;-61
2023/03/26 13:03:49;;;;;;;0.00;0.00;;;;;;;;;;1718408;28;20202;-62
2023/03/26 13:04:49;;;;;;;0.00;0.00;;;;;;;;;;1722544;28;20612;-61
2023/03/26 13:06:02;;;;;;;0.00;0.00;;;;;;;;;;1717504;28;20337;-61
2023/03/26 13:06:56;;;;;;;0.00;0.00;;;;;;;;;;1724059;28;20209;-61
2023/03/26 13:07:59;;;;;;;0.00;0.00;;;;;;;;;;1722757;28;20488;-61
2023/03/26 13:09:06;;;;;;;0.00;0.00;;;;;;;;;;1721406;28;20741;-62
2023/03/26 13:10:15;;;;;;;0.00;0.00;;;;;;;;;;1719396;28;20209;-61
2023/03/26 13:11:10;;;;;;;0.00;0.00;;;;;;;;;;1716356;28;20229;-61
2023/03/26 13:12:08;;;;;;;0.00;0.00;;;;;;;;;;1722038;28;20279;-62
2023/03/26 13:13:04;;;;;;;0.00;0.00;;;;;;;;;;1718621;28;20296;-61
2023/03/26 13:14:01;;;;;;;0.00;0.00;;;;;;;;;;1720203;28;20662;-62
2023/03/26 13:14:58;;;;;;;0.00;0.00;;;;;;;;;;1719971;28;20202;-62
2023/03/26 13:15:51;;;;;;;0.00;0.00;;;;;;;;;;1717003;28;20298;-61
2023/03/26 13:16:49;;;;;;;0.00;0.00;;;;;;;;;;1719247;28;20639;-61
2023/03/26 13:17:44;;;;;;;0.00;0.00;;;;;;;;;;1724798;28;20398;-62
2023/03/26 13:18:48;;;;;;;0.00;0.00;;;;;;;;;;1724568;28;20205;-61
2023/03/26 13:19:44;;;;;;;0.00;0.00;;;;;;;;;;1719349;28;20626;-61
2023/03/26 13:20:46;;;;;;;0.00;0.00;;;;;;;;;;1718988;28;20319;-61
2023/03/26 13:21:44;;;;;;;0.00;0.00;;;;;;;;;;1717517;28;20891;-63
2023/03/26 13:22:40;;;;;;;0.00;0.00;;;;;;;;;;1724654;28;20223;-62
2023/03/26 13:23:36;;;;;;;0.00;0.00;;;;;;;;;;1717808;28;20236;-62
2023/03/26 13:24:35;;;;;;;0.00;0.00;;;;;;;;;;1717703;28;20190;-61
2023/03/26 13:25:31;;;;;;;0.00;0.00;;;;;;;;;;1722112;28;20270;-62
2023/03/26 13:26:29;;;;;;;0.00;0.00;;;;;;;;;;1724086;28;20379;-62
2023/03/26 13:27:25;;;;;;;0.00;0.00;;;;;;;;;;1719558;28;20230;-62
2023/03/26 13:28:22;;;;;;;0.00;0.00;;;;;;;;;;1718699;28;20670;-61
2023/03/26 13:29:19;;;;;;;0.00;0.00;;;;;;;;;;1722411;28;20327;-62
2023/03/26 13:30:17;;;;;;;0.00;0.00;;;;;;;;;;1721714;28;20641;-62
2023/03/26 13:31:10;;;;;;;0.00;0.00;;;;;;;;;;1722692;28;20668;-62
2023/03/26 13:32:06;;;;;;;0.00;0.00;;;;;;;;;;1723602;28;20231;-62
2023/03/26 13:33:04;;;;;;;0.00;0.00;;;;;;;;;;1722593;28;20262;-61
2023/03/26 13:33:59;;;;;;;0.00;0.00;;;;;;;;;;1747607;22;20199;-62
2023/03/26 13:35:00;;;;;;;0.00;0.00;;;;;;;;;;1730685;28;20200;-60
2023/03/26 13:35:56;;;;;;;0.00;0.00;;;;;;;;;;1724201;28;20229;-59
2023/03/26 13:36:51;;;;;;;0.00;0.00;;;;;;;;;;1729460;28;20265;-59
2023/03/26 13:37:48;;;;;;;0.00;0.00;;;;;;;;;;1731312;28;20270;-59
2023/03/26 13:38:44;;;;;;;0.00;0.00;;;;;;;;;;1731278;28;20215;-59
2023/03/26 13:39:39;;;;;;;0.00;0.00;;;;;;;;;;1731355;28;20188;-60
2023/03/26 13:40:37;;;;;;;0.00;0.00;;;;;;;;;;1726383;28;20240;-60
2023/03/26 13:41:33;;;;;;;0.00;0.00;;;;;;;;;;1728025;28;20196;-59
2023/03/26 13:42:45;;;;;;;0.00;0.00;;;;;;;;;;1731340;28;20208;-59
2023/03/26 13:43:41;;;;;;;0.00;0.00;;;;;;;;;;1726440;28;20241;-60
2023/03/26 13:44:37;;;;;;;0.00;0.00;;;;;;;;;;1730784;28;20298;-59
2023/03/26 13:45:39;;;;;;;0.00;0.00;;;;;;;;;;1726207;28;26065;-60
2023/03/26 13:46:33;;;;;;;0.00;0.00;;;;;;;;;;1724343;28;20645;-59
2023/03/26 13:47:26;;;;;;;0.00;0.00;;;;;;;;;;1724325;28;20209;-60
2023/03/26 13:48:20;;;;;;;0.00;0.00;;;;;;;;;;1729533;28;20669;-59
2023/03/26 13:49:14;;;;;;;0.00;0.00;;;;;;;;;;1726531;28;20351;-60
2023/03/26 13:50:10;;;;;;;0.00;0.00;;;;;;;;;;1727754;28;20204;-59
2023/03/26 13:51:04;;;;;;;0.00;0.00;;;;;;;;;;1725477;28;20228;-59
2023/03/26 13:51:58;;;;;;;0.00;0.00;;;;;;;;;;1730692;28;20641;-60